Time;durP1;ratioP1;P1;durP2;ratioP2;P2;SDS_P1;SDS_P2;PMS_P1;PMS_P2;Temp;Humidity;BMP_temperature;BMP_pressure;BME280_temperature;BME280_humidity;BME280_pressure;Samples;Min_cycle;Max_cycle;Signal;HPM_P1;HPM_P2
2023/03/03 00:01:24;;;;;;;24.17;11.47;;;0.50;99.90;;;;;;4865830;29;20180;-81
2023/03/03 00:03:51;;;;;;;30.70;11.57;;;0.50;99.90;;;;;;4882929;29;20198;-80
2023/03/03 00:06:17;;;;;;;22.00;9.57;;;0.50;99.90;;;;;;4866663;29;20670;-80
2023/03/03 00:08:42;;;;;;;22.93;10.53;;;0.50;99.90;;;;;;4883327;29;20310;-80
2023/03/03 00:11:09;;;;;;;22.97;10.53;;;0.40;99.90;;;;;;4883135;29;20623;-81
2023/03/03 00:13:45;;;;;;;24.57;10.77;;;0.40;99.90;;;;;;4883489;29;20185;-80
2023/03/03 00:16:22;;;;;;;17.70;10.27;;;0.40;99.90;;;;;;4865284;29;20227;-81
2023/03/03 00:18:48;;;;;;;20.60;10.63;;;0.40;99.90;;;;;;4867910;29;20237;-80
2023/03/03 00:21:32;;;;;;;19.80;10.90;;;0.40;99.90;;;;;;4892739;29;20314;-81
2023/03/03 00:24:13;;;;;;;18.80;10.57;;;0.30;99.90;;;;;;4866336;29;20271;-81
2023/03/03 00:26:42;;;;;;;21.17;11.13;;;0.40;99.90;;;;;;4882085;29;20181;-80
2023/03/03 00:29:40;;;;;;;21.00;10.50;;;0.50;99.90;;;;;;4882997;29;20559;-80
2023/03/03 00:32:15;;;;;;;21.50;10.60;;;0.40;99.90;;;;;;4866546;29;20526;-81
2023/03/03 00:34:41;;;;;;;21.13;9.63;;;0.40;99.90;;;;;;4867073;29;20189;-81
2023/03/03 00:37:28;;;;;;;21.00;10.77;;;0.50;99.90;;;;;;4882981;29;20671;-82
2023/03/03 00:40:12;;;;;;;23.10;10.83;;;0.40;99.90;;;;;;4881808;29;20294;-81
2023/03/03 00:42:38;;;;;;;20.20;10.83;;;0.40;99.90;;;;;;4882954;29;20196;-82
2023/03/03 00:45:31;;;;;;;22.60;11.13;;;0.40;99.90;;;;;;4882498;29;20219;-81
2023/03/03 00:47:57;;;;;;;21.17;10.83;;;0.40;99.90;;;;;;4865168;29;20624;-81
2023/03/03 00:50:38;;;;;;;22.03;10.70;;;0.30;99.90;;;;;;4872488;29;20197;-80
2023/03/03 00:53:15;;;;;;;20.23;11.20;;;0.30;99.90;;;;;;4882697;29;20160;-80
2023/03/03 00:55:42;;;;;;;21.13;10.30;;;0.30;99.90;;;;;;4864353;29;20271;-80
2023/03/03 00:58:08;;;;;;;22.10;10.83;;;0.40;99.90;;;;;;4864559;29;20525;-80
2023/03/03 01:00:35;;;;;;;18.73;9.20;;;0.40;99.90;;;;;;4883031;29;20618;-82
2023/03/03 01:03:03;;;;;;;21.80;10.17;;;0.40;99.90;;;;;;4865359;29;20529;-81
2023/03/03 01:05:29;;;;;;;21.30;10.57;;;0.40;99.90;;;;;;4865127;29;20222;-81
2023/03/03 01:07:55;;;;;;;19.90;9.83;;;0.40;99.90;;;;;;4864650;29;20183;-80
2023/03/03 01:10:21;;;;;;;19.70;9.90;;;0.40;99.90;;;;;;4865717;29;20194;-81
2023/03/03 01:12:47;;;;;;;16.97;9.90;;;0.50;99.90;;;;;;4892322;29;20187;-79
2023/03/03 01:15:14;;;;;;;19.47;10.57;;;0.50;99.90;;;;;;4900585;29;20536;-80
2023/03/03 01:17:41;;;;;;;20.10;9.70;;;0.50;99.90;;;;;;4883003;29;20612;-81
2023/03/03 01:20:10;;;;;;;20.93;10.03;;;0.40;99.90;;;;;;5287910;23;20258;-80
2023/03/03 01:22:35;;;;;;;19.07;9.80;;;0.50;99.90;;;;;;4865071;29;20210;-79
2023/03/03 01:25:02;;;;;;;23.57;11.43;;;0.50;99.90;;;;;;4881699;29;20643;-81
2023/03/03 01:27:29;;;;;;;22.83;11.00;;;0.50;99.90;;;;;;4858079;29;20192;-81
2023/03/03 01:29:56;;;;;;;25.10;12.07;;;0.50;99.90;;;;;;4861997;29;20240;-81
2023/03/03 01:32:26;;;;;;;24.20;11.67;;;0.60;99.90;;;;;;4845891;29;20191;-80
2023/03/03 01:34:53;;;;;;;19.70;9.80;;;0.60;99.90;;;;;;4846655;29;20195;-81
2023/03/03 01:37:19;;;;;;;26.13;11.33;;;0.60;99.90;;;;;;4863336;29;20190;-81
2023/03/03 01:39:53;;;;;;;22.70;11.37;;;0.50;99.90;;;;;;4847154;29;20197;-82
2023/03/03 01:42:19;;;;;;;26.03;12.50;;;0.50;99.90;;;;;;4862790;29;20169;-80
2023/03/03 01:44:45;;;;;;;25.57;10.77;;;0.50;99.90;;;;;;4861110;29;20291;-81
2023/03/03 01:47:19;;;;;;;26.83;12.20;;;0.50;99.90;;;;;;4862653;29;20267;-82
2023/03/03 01:50:08;;;;;;;24.63;11.27;;;0.50;99.90;;;;;;4857792;29;20219;-80
2023/03/03 01:52:45;;;;;;;26.43;11.63;;;0.40;99.90;;;;;;4851920;29;20260;-80
2023/03/03 01:55:24;;;;;;;27.60;12.00;;;0.40;99.90;;;;;;4862755;29;20636;-82
2023/03/03 01:58:02;;;;;;;21.50;10.73;;;0.40;99.90;;;;;;4863103;29;20529;-82
2023/03/03 02:00:29;;;;;;;19.50;9.43;;;0.50;99.90;;;;;;4861464;29;20237;-81
2023/03/03 02:02:58;;;;;;;19.97;9.37;;;0.50;99.90;;;;;;4862741;29;20176;-81
2023/03/03 02:05:24;;;;;;;23.73;10.73;;;0.40;99.90;;;;;;4862757;29;20319;-81
2023/03/03 02:07:51;;;;;;;22.33;10.23;;;0.40;99.90;;;;;;4862192;29;20716;-82
2023/03/03 02:10:20;;;;;;;20.03;10.47;;;0.40;99.90;;;;;;4861903;29;20632;-81
2023/03/03 02:12:54;;;;;;;21.97;10.63;;;0.40;99.90;;;;;;4862476;29;20624;-81
2023/03/03 02:15:24;;;;;;;21.03;9.77;;;0.40;99.90;;;;;;4862900;29;20176;-80
2023/03/03 02:17:54;;;;;;;21.33;10.30;;;0.40;99.90;;;;;;4844428;29;20638;-82
2023/03/03 02:20:34;;;;;;;21.23;10.07;;;0.40;99.90;;;;;;4862025;29;20224;-82
2023/03/03 02:23:16;;;;;;;21.73;10.33;;;0.50;99.90;;;;;;4846013;29;20271;-82
2023/03/03 02:25:54;;;;;;;22.40;10.03;;;0.50;99.90;;;;;;4862709;29;20215;-80
2023/03/03 02:28:20;;;;;;;20.43;10.43;;;0.50;99.90;;;;;;4845371;29;20520;-82
2023/03/03 02:30:46;;;;;;;23.37;10.97;;;0.50;99.90;;;;;;4861869;29;20272;-82
2023/03/03 02:33:12;;;;;;;22.47;10.67;;;0.50;99.90;;;;;;4861952;29;20219;-82
2023/03/03 02:35:39;;;;;;;21.63;10.20;;;0.40;99.90;;;;;;4861921;29;20209;-81
2023/03/03 02:38:24;;;;;;;22.23;10.03;;;0.50;99.90;;;;;;4862192;29;20600;-81
2023/03/03 02:40:59;;;;;;;21.23;10.93;;;0.50;99.90;;;;;;4847446;29;20191;-81
2023/03/03 02:43:31;;;;;;;20.63;10.37;;;0.50;99.90;;;;;;4862655;29;20237;-82
2023/03/03 02:45:57;;;;;;;23.23;9.80;;;0.50;99.90;;;;;;4878714;29;20218;-81
2023/03/03 02:48:23;;;;;;;23.37;10.80;;;0.50;99.90;;;;;;4880264;29;20224;-81
2023/03/03 02:50:49;;;;;;;19.87;10.27;;;0.50;99.90;;;;;;4879780;29;20283;-81
2023/03/03 02:53:15;;;;;;;23.17;10.20;;;0.50;99.90;;;;;;4863243;29;20186;-81
2023/03/03 02:55:40;;;;;;;18.23;9.53;;;0.40;99.90;;;;;;4865652;29;20219;-81
2023/03/03 02:58:06;;;;;;;22.10;10.40;;;0.40;99.90;;;;;;4861875;29;20628;-82
2023/03/03 03:00:32;;;;;;;22.00;10.70;;;0.40;99.90;;;;;;4861674;29;20203;-81
2023/03/03 03:02:57;;;;;;;21.37;10.30;;;0.50;99.90;;;;;;4860346;29;20253;-81
2023/03/03 03:05:23;;;;;;;24.70;12.23;;;0.50;99.90;;;;;;4845007;29;20221;-81
2023/03/03 03:07:49;;;;;;;25.03;10.30;;;0.50;99.90;;;;;;4861480;29;20325;-81
2023/03/03 03:10:15;;;;;;;20.77;10.50;;;0.50;99.90;;;;;;4861385;29;20514;-81
2023/03/03 03:12:40;;;;;;;25.30;10.97;;;0.50;99.90;;;;;;4861583;29;20247;-81
2023/03/03 03:15:08;;;;;;;23.27;11.37;;;0.50;99.90;;;;;;4861793;29;20200;-81
2023/03/03 03:17:36;;;;;;;24.03;10.83;;;0.50;99.90;;;;;;4844940;29;20188;-80
2023/03/03 03:20:02;;;;;;;28.63;11.47;;;0.50;99.90;;;;;;4870571;29;20536;-81
2023/03/03 03:22:28;;;;;;;20.90;9.90;;;0.60;99.90;;;;;;4879663;29;20166;-81
2023/03/03 03:24:54;;;;;;;23.47;10.80;;;0.60;99.90;;;;;;4878806;29;20212;-82
2023/03/03 03:27:19;;;;;;;26.73;11.50;;;0.60;99.90;;;;;;4879777;29;20193;-80
2023/03/03 03:29:45;;;;;;;23.20;10.07;;;0.60;99.90;;;;;;4860231;29;20188;-81
2023/03/03 03:32:11;;;;;;;22.63;10.07;;;0.60;99.90;;;;;;4859439;29;20188;-81
2023/03/03 03:34:37;;;;;;;24.37;10.47;;;0.60;99.90;;;;;;4860569;29;20217;-80
2023/03/03 03:37:03;;;;;;;23.70;10.20;;;0.50;99.90;;;;;;4844127;29;20698;-82
2023/03/03 03:39:28;;;;;;;26.87;11.13;;;0.50;99.90;;;;;;4861496;29;20193;-81
2023/03/03 03:41:54;;;;;;;22.17;10.40;;;0.50;99.90;;;;;;4859868;29;20192;-82
2023/03/03 03:44:22;;;;;;;22.47;10.50;;;0.50;99.90;;;;;;4859657;29;20228;-82
2023/03/03 03:46:48;;;;;;;23.00;10.10;;;0.40;99.90;;;;;;4858940;29;20267;-82
2023/03/03 03:49:13;;;;;;;22.40;10.27;;;0.50;99.90;;;;;;4863697;29;20290;-82
2023/03/03 03:51:40;;;;;;;28.43;11.47;;;0.40;99.90;;;;;;4862638;29;20187;-82
2023/03/03 03:54:06;;;;;;;24.93;10.73;;;0.50;99.90;;;;;;4873609;29;20184;-83
2023/03/03 03:56:32;;;;;;;23.03;10.73;;;0.50;99.90;;;;;;4860179;29;20249;-82
2023/03/03 03:58:57;;;;;;;26.23;11.70;;;0.50;99.90;;;;;;4860423;29;20184;-82
2023/03/03 04:01:24;;;;;;;21.33;10.80;;;0.50;99.90;;;;;;4860800;29;20221;-82
2023/03/03 04:03:50;;;;;;;24.40;11.03;;;0.50;99.90;;;;;;4860961;29;20192;-85
2023/03/03 04:06:15;;;;;;;25.97;12.07;;;0.50;99.90;;;;;;4860705;29;20247;-83
2023/03/03 04:08:41;;;;;;;26.23;11.03;;;0.50;99.90;;;;;;4861504;29;20196;-83
2023/03/03 04:11:07;;;;;;;25.40;11.53;;;0.50;99.90;;;;;;4861134;29;20492;-83
2023/03/03 04:13:34;;;;;;;25.00;11.83;;;0.50;99.90;;;;;;4861073;29;20238;-82
2023/03/03 04:16:00;;;;;;;24.10;11.73;;;0.50;99.90;;;;;;4859950;29;20533;-81
2023/03/03 04:18:26;;;;;;;28.33;11.33;;;0.50;99.90;;;;;;4861067;29;20187;-83
2023/03/03 04:20:53;;;;;;;26.47;11.27;;;0.50;99.90;;;;;;4875435;29;20262;-83
2023/03/03 04:23:19;;;;;;;27.53;12.40;;;0.50;99.90;;;;;;4879490;29;20270;-82
2023/03/03 04:25:48;;;;;;;26.73;11.60;;;0.50;99.90;;;;;;4879576;29;20732;-83
2023/03/03 04:28:15;;;;;;;26.43;11.43;;;0.50;99.90;;;;;;4879631;29;20191;-84
2023/03/03 04:30:41;;;;;;;30.43;12.10;;;0.50;99.90;;;;;;4879419;29;20237;-82
2023/03/03 04:33:08;;;;;;;24.80;12.30;;;0.50;99.90;;;;;;4879571;29;20249;-83
2023/03/03 04:35:34;;;;;;;26.73;11.87;;;0.50;99.90;;;;;;4860102;29;20189;-84
2023/03/03 04:38:00;;;;;;;26.63;13.10;;;0.50;99.90;;;;;;4859399;29;20183;-85
2023/03/03 04:40:26;;;;;;;26.40;12.77;;;0.50;99.90;;;;;;4860149;29;20244;-83
2023/03/03 04:42:51;;;;;;;28.37;13.20;;;0.50;99.90;;;;;;4848086;29;20245;-82
2023/03/03 04:45:17;;;;;;;26.23;12.37;;;0.60;99.90;;;;;;4864006;29;20220;-82
2023/03/03 04:47:43;;;;;;;28.03;13.37;;;0.50;99.90;;;;;;4863030;29;20248;-82
2023/03/03 04:50:09;;;;;;;23.10;11.97;;;0.50;99.90;;;;;;4874613;29;20208;-81
2023/03/03 04:52:36;;;;;;;25.53;11.43;;;0.50;99.90;;;;;;4882294;29;20215;-81
2023/03/03 04:55:02;;;;;;;28.23;13.67;;;0.50;99.90;;;;;;4882663;29;20168;-81
2023/03/03 04:57:28;;;;;;;24.07;11.90;;;0.60;99.90;;;;;;4882475;29;20616;-82
2023/03/03 04:59:53;;;;;;;29.80;13.50;;;0.50;99.90;;;;;;4855223;29;20195;-81
2023/03/03 05:02:19;;;;;;;28.57;13.27;;;0.60;99.90;;;;;;4845894;29;20252;-78
2023/03/03 05:04:45;;;;;;;29.53;11.93;;;0.60;99.90;;;;;;4861965;29;20279;-79
2023/03/03 05:07:10;;;;;;;29.53;14.03;;;0.70;99.90;;;;;;4862465;29;20176;-80
2023/03/03 05:09:36;;;;;;;32.33;14.27;;;0.60;99.90;;;;;;4847081;29;20237;-79
2023/03/03 05:12:02;;;;;;;26.30;12.60;;;0.60;99.90;;;;;;4862512;29;20188;-80
2023/03/03 05:14:28;;;;;;;24.90;12.57;;;0.60;99.90;;;;;;4861436;29;20274;-80
2023/03/03 05:16:53;;;;;;;23.57;12.37;;;0.60;99.90;;;;;;4863509;29;20212;-79
2023/03/03 05:19:19;;;;;;;26.77;12.67;;;0.60;99.90;;;;;;4851782;29;20634;-80
2023/03/03 05:21:45;;;;;;;25.97;11.00;;;0.60;99.90;;;;;;4864310;29;20240;-80
2023/03/03 05:24:12;;;;;;;22.07;11.67;;;0.70;99.90;;;;;;4882092;29;20248;-79
2023/03/03 05:26:39;;;;;;;23.53;12.83;;;0.70;99.90;;;;;;4882047;29;20262;-80
2023/03/03 05:29:05;;;;;;;19.70;10.77;;;0.70;99.90;;;;;;4881993;29;20176;-79
2023/03/03 05:31:31;;;;;;;21.57;11.03;;;0.60;99.90;;;;;;4881847;29;20240;-79
2023/03/03 05:33:57;;;;;;;23.33;12.57;;;0.60;99.90;;;;;;4867949;29;20188;-79
2023/03/03 05:36:23;;;;;;;23.03;12.47;;;0.60;99.90;;;;;;4863329;29;20196;-79
2023/03/03 05:38:49;;;;;;;23.07;12.20;;;0.60;99.90;;;;;;4847047;29;20558;-79
2023/03/03 05:41:14;;;;;;;19.77;10.87;;;0.60;99.90;;;;;;4861470;29;20192;-79
2023/03/03 05:43:40;;;;;;;23.77;12.00;;;0.50;99.90;;;;;;4874644;29;20192;-79
2023/03/03 05:46:05;;;;;;;22.27;10.93;;;0.50;99.90;;;;;;4864034;29;20225;-79
2023/03/03 05:48:31;;;;;;;23.03;11.50;;;0.60;99.90;;;;;;4864367;29;20192;-80
2023/03/03 05:50:58;;;;;;;23.80;11.17;;;0.60;99.90;;;;;;4879403;29;20602;-79
2023/03/03 05:53:24;;;;;;;20.63;10.97;;;0.60;99.90;;;;;;4869891;29;20201;-79
2023/03/03 05:55:50;;;;;;;18.83;10.00;;;0.60;99.90;;;;;;4879828;29;20235;-78
2023/03/03 05:58:16;;;;;;;22.13;10.63;;;0.60;99.90;;;;;;4864262;29;20566;-80
2023/03/03 06:00:41;;;;;;;19.23;10.33;;;0.60;99.90;;;;;;4880963;29;20271;-80
2023/03/03 06:03:07;;;;;;;20.17;10.63;;;0.60;99.90;;;;;;4879605;29;20192;-80
2023/03/03 06:05:32;;;;;;;19.07;10.57;;;0.60;99.90;;;;;;4865521;29;20627;-80
2023/03/03 06:07:58;;;;;;;23.97;12.27;;;0.60;99.90;;;;;;4878961;29;20188;-80
2023/03/03 06:10:25;;;;;;;23.87;12.10;;;0.70;99.90;;;;;;4862663;29;20190;-79
2023/03/03 06:12:51;;;;;;;23.13;11.60;;;0.70;99.90;;;;;;4878258;29;20222;-79
2023/03/03 06:15:17;;;;;;;21.90;11.90;;;0.70;99.90;;;;;;4880260;29;20207;-79
2023/03/03 06:17:42;;;;;;;26.27;13.03;;;0.70;99.90;;;;;;4880634;29;20203;-80
2023/03/03 06:20:09;;;;;;;22.93;11.57;;;0.70;99.90;;;;;;4863536;29;20362;-79
2023/03/03 06:22:34;;;;;;;29.63;12.83;;;0.70;99.90;;;;;;4880121;29;20251;-80
2023/03/03 06:25:00;;;;;;;25.57;12.67;;;0.70;99.90;;;;;;4880493;29;20647;-79
2023/03/03 06:27:26;;;;;;;24.33;11.80;;;0.80;99.90;;;;;;4880898;29;20657;-79
2023/03/03 06:29:51;;;;;;;27.53;11.83;;;0.70;99.90;;;;;;4879514;29;20206;-79
2023/03/03 06:32:17;;;;;;;26.27;12.60;;;0.80;99.90;;;;;;4880751;29;20180;-80
2023/03/03 06:34:43;;;;;;;25.83;12.03;;;0.80;99.90;;;;;;4879973;29;20244;-79
2023/03/03 06:37:09;;;;;;;25.83;12.10;;;0.70;99.90;;;;;;4863917;29;20183;-79
2023/03/03 06:39:34;;;;;;;26.10;12.23;;;0.80;99.90;;;;;;4863795;29;20523;-79
2023/03/03 06:42:00;;;;;;;25.97;12.40;;;0.80;99.90;;;;;;4879342;29;20187;-79
2023/03/03 06:44:25;;;;;;;27.50;12.20;;;0.80;99.90;;;;;;4879276;29;20215;-79
2023/03/03 06:46:52;;;;;;;28.33;13.33;;;0.80;99.90;;;;;;4863542;29;20648;-79
2023/03/03 06:49:18;;;;;;;26.43;12.67;;;0.80;99.90;;;;;;4862205;29;20199;-79
2023/03/03 06:51:45;;;;;;;26.93;13.17;;;0.80;99.90;;;;;;4879846;29;20581;-80
2023/03/03 06:54:19;;;;;;;26.87;12.83;;;0.90;99.90;;;;;;4869681;29;20188;-79
2023/03/03 06:56:46;;;;;;;27.23;12.57;;;0.80;99.90;;;;;;4861828;29;20703;-79
2023/03/03 06:59:14;;;;;;;22.33;11.17;;;0.90;99.90;;;;;;4845218;29;20184;-80
2023/03/03 07:01:40;;;;;;;22.17;11.73;;;0.90;99.90;;;;;;4860645;29;20204;-79
2023/03/03 07:04:18;;;;;;;21.13;11.50;;;0.90;99.90;;;;;;4844869;29;20180;-79
2023/03/03 07:06:44;;;;;;;25.63;13.33;;;1.00;99.90;;;;;;4861750;29;20192;-80
2023/03/03 07:09:30;;;;;;;26.63;11.83;;;1.00;99.90;;;;;;4844246;29;20195;-79
2023/03/03 07:12:01;;;;;;;22.47;12.07;;;1.10;99.90;;;;;;4845221;29;20189;-79
2023/03/03 07:14:29;;;;;;;24.97;11.53;;;1.00;99.90;;;;;;4844543;29;20183;-79
2023/03/03 07:16:59;;;;;;;28.93;12.60;;;1.00;99.90;;;;;;4860521;29;20505;-79
2023/03/03 07:19:34;;;;;;;27.67;12.30;;;0.90;99.90;;;;;;4846493;29;20181;-79
2023/03/03 07:22:12;;;;;;;24.17;12.03;;;1.00;99.90;;;;;;4879854;29;20247;-79
2023/03/03 07:24:40;;;;;;;22.40;12.60;;;1.00;99.90;;;;;;4880086;29;20236;-79
2023/03/03 07:27:10;;;;;;;22.43;12.50;;;1.00;99.90;;;;;;4862272;29;20210;-78
2023/03/03 07:29:40;;;;;;;24.60;12.67;;;1.00;99.90;;;;;;4844126;29;20176;-79
2023/03/03 07:32:24;;;;;;;23.13;11.90;;;1.10;99.90;;;;;;4861384;29;20641;-79
2023/03/03 07:34:53;;;;;;;24.07;12.43;;;1.10;99.90;;;;;;4859981;29;20569;-79
2023/03/03 07:37:30;;;;;;;22.27;11.70;;;1.00;99.90;;;;;;4861215;29;20260;-79
2023/03/03 07:39:56;;;;;;;29.60;13.77;;;1.10;99.90;;;;;;4861102;29;20168;-79
2023/03/03 07:42:27;;;;;;;30.30;13.73;;;1.10;99.90;;;;;;4860343;29;20211;-79
2023/03/03 07:44:57;;;;;;;25.50;12.73;;;1.10;99.90;;;;;;4861475;29;20290;-79
2023/03/03 07:47:34;;;;;;;22.80;12.47;;;1.10;99.90;;;;;;4861196;29;20183;-81
2023/03/03 07:50:27;;;;;;;23.07;11.30;;;1.10;99.90;;;;;;4867115;29;20196;-80
2023/03/03 07:52:59;;;;;;;19.83;10.57;;;1.20;99.90;;;;;;4877478;29;20225;-80
2023/03/03 07:55:38;;;;;;;23.17;11.43;;;1.20;99.90;;;;;;4879647;29;20635;-79
2023/03/03 07:58:16;;;;;;;24.97;11.03;;;1.20;99.90;;;;;;4862500;29;20631;-80
2023/03/03 08:00:44;;;;;;;22.73;11.40;;;1.30;99.90;;;;;;4863403;29;20211;-80
2023/03/03 08:03:18;;;;;;;23.60;12.13;;;1.30;99.90;;;;;;4879530;29;20185;-80
2023/03/03 08:05:47;;;;;;;21.90;11.17;;;1.30;99.90;;;;;;4862426;29;20219;-79
2023/03/03 08:08:29;;;;;;;25.77;12.07;;;1.30;99.90;;;;;;4879666;29;20552;-80
2023/03/03 08:11:00;;;;;;;26.03;11.97;;;1.30;99.90;;;;;;4862836;29;20206;-80
2023/03/03 08:13:38;;;;;;;22.57;11.63;;;1.40;99.90;;;;;;4862726;29;20189;-80
2023/03/03 08:16:10;;;;;;;26.17;12.43;;;1.40;99.90;;;;;;4880629;29;20248;-80
2023/03/03 08:18:46;;;;;;;24.13;11.97;;;1.30;99.90;;;;;;4881687;29;20250;-79
2023/03/03 08:21:13;;;;;;;24.83;13.03;;;1.30;99.90;;;;;;4858618;29;20242;-81
2023/03/03 08:23:39;;;;;;;22.17;12.07;;;1.40;99.90;;;;;;4864615;29;20210;-80
2023/03/03 08:26:04;;;;;;;23.17;11.50;;;1.40;99.90;;;;;;4882861;29;20216;-80
2023/03/03 08:28:30;;;;;;;26.43;12.33;;;1.40;99.90;;;;;;4883091;29;20258;-80
2023/03/03 08:30:56;;;;;;;22.00;11.30;;;1.40;99.90;;;;;;4882447;29;20187;-80
2023/03/03 08:33:22;;;;;;;28.40;13.47;;;1.40;99.90;;;;;;4865948;29;20191;-80
2023/03/03 08:35:47;;;;;;;21.60;12.37;;;1.50;99.90;;;;;;4882419;29;20251;-80
2023/03/03 08:38:15;;;;;;;23.87;12.83;;;1.60;99.90;;;;;;4873682;29;20227;-80
2023/03/03 08:40:41;;;;;;;22.43;11.23;;;1.60;99.90;;;;;;4863576;29;20259;-80
2023/03/03 08:43:07;;;;;;;23.73;11.93;;;1.60;99.90;;;;;;4863868;29;20267;-80
2023/03/03 08:45:34;;;;;;;24.77;12.63;;;1.70;99.90;;;;;;4863991;29;20209;-80
2023/03/03 08:48:00;;;;;;;23.27;11.30;;;1.70;99.90;;;;;;4847229;29;20719;-80
2023/03/03 08:50:27;;;;;;;27.53;12.90;;;1.80;99.90;;;;;;4853311;29;20219;-80
2023/03/03 08:52:53;;;;;;;21.23;11.70;;;1.80;99.90;;;;;;4847204;29;20210;-79
2023/03/03 08:55:18;;;;;;;20.63;11.57;;;1.80;99.90;;;;;;4865039;29;20996;-80
2023/03/03 08:57:44;;;;;;;21.00;11.20;;;1.70;99.90;;;;;;4864923;29;20202;-79
2023/03/03 09:00:13;;;;;;;23.47;12.70;;;1.70;99.90;;;;;;4877588;29;20252;-80
2023/03/03 09:02:39;;;;;;;20.57;11.50;;;1.80;99.90;;;;;;4864138;29;20199;-80
2023/03/03 09:05:05;;;;;;;24.17;11.07;;;1.80;99.90;;;;;;4865071;29;20204;-80
2023/03/03 09:07:31;;;;;;;26.63;12.57;;;1.70;99.90;;;;;;4865537;29;20271;-81
2023/03/03 09:09:57;;;;;;;21.57;11.47;;;1.70;99.90;;;;;;4865296;29;20556;-80
2023/03/03 09:12:37;;;;;;;19.17;10.70;;;1.70;99.90;;;;;;4865237;29;20635;-80
2023/03/03 09:15:12;;;;;;;23.30;10.77;;;1.80;99.90;;;;;;4865709;29;20230;-81
2023/03/03 09:17:37;;;;;;;23.57;12.50;;;1.80;99.90;;;;;;4880968;29;20196;-81
2023/03/03 09:20:40;;;;;;;21.27;11.67;;;1.80;99.90;;;;;;4881516;29;20362;-81
2023/03/03 09:23:32;;;;;;;21.20;11.63;;;1.90;99.90;;;;;;4867564;29;20227;-80
2023/03/03 09:26:38;;;;;;;25.50;12.17;;;1.90;99.90;;;;;;4865436;29;20563;-81
2023/03/03 09:29:26;;;;;;;26.30;11.63;;;2.10;99.90;;;;;;4878340;29;20188;-80
2023/03/03 09:31:59;;;;;;;20.77;11.03;;;2.10;99.90;;;;;;4870518;29;20200;-81
2023/03/03 09:34:45;;;;;;;22.40;11.53;;;2.00;99.90;;;;;;4865266;29;20572;-80
2023/03/03 09:37:18;;;;;;;20.57;10.63;;;2.10;99.90;;;;;;4881341;29;20624;-81
2023/03/03 09:39:47;;;;;;;18.80;10.87;;;2.10;99.90;;;;;;4880321;29;20187;-80
2023/03/03 09:42:30;;;;;;;22.93;11.60;;;2.20;99.90;;;;;;4881670;29;20191;-80
2023/03/03 09:45:43;;;;;;;21.50;10.67;;;2.20;99.90;;;;;;4881494;29;20230;-80
2023/03/03 09:48:26;;;;;;;21.37;10.97;;;2.20;99.90;;;;;;4805859;29;20207;-80
2023/03/03 09:51:21;;;;;;;21.87;11.70;;;2.30;99.90;;;;;;4805083;29;20224;-81
2023/03/03 09:53:53;;;;;;;25.37;12.63;;;2.30;99.90;;;;;;4864047;29;20203;-80
2023/03/03 09:56:45;;;;;;;22.03;12.00;;;2.40;99.90;;;;;;4864691;29;20168;-80
2023/03/03 09:59:28;;;;;;;21.63;12.67;;;2.40;99.90;;;;;;4881474;29;20244;-80
2023/03/03 10:02:30;;;;;;;23.67;12.47;;;2.40;99.90;;;;;;4864633;29;20179;-81
2023/03/03 10:05:03;;;;;;;20.60;11.50;;;2.50;99.90;;;;;;4881287;29;20203;-81
2023/03/03 10:07:44;;;;;;;18.87;11.00;;;2.50;99.90;;;;;;4864496;29;20206;-81
2023/03/03 10:10:18;;;;;;;22.20;11.73;;;2.60;99.90;;;;;;4864374;29;20191;-81
2023/03/03 10:12:54;;;;;;;19.30;10.63;;;2.70;99.90;;;;;;4864373;29;20255;-81
2023/03/03 10:15:59;;;;;;;19.20;11.07;;;2.60;99.90;;;;;;4864612;29;20191;-81
2023/03/03 10:18:54;;;;;;;23.33;11.87;;;2.60;99.90;;;;;;4857642;29;20294;-81
2023/03/03 10:21:24;;;;;;;21.13;11.33;;;2.80;99.90;;;;;;4876184;29;20232;-81
2023/03/03 10:23:58;;;;;;;20.07;10.20;;;2.80;99.90;;;;;;4845900;29;20244;-81
2023/03/03 10:27:06;;;;;;;20.97;10.93;;;2.80;99.90;;;;;;4845807;29;20216;-81
2023/03/03 10:30:27;;;;;;;16.20;9.83;;;2.80;99.90;;;;;;4876866;29;20180;-80
2023/03/03 10:33:04;;;;;;;19.27;10.40;;;2.80;99.90;;;;;;4805423;29;20182;-80
2023/03/03 10:35:49;;;;;;;15.80;8.93;;;2.70;99.90;;;;;;4861667;29;20172;-81
2023/03/03 10:38:38;;;;;;;16.83;9.20;;;2.70;99.90;;;;;;4875902;29;20188;-81
2023/03/03 10:41:16;;;;;;;19.17;9.83;;;2.60;99.90;;;;;;4876330;29;20271;-82
2023/03/03 10:44:15;;;;;;;18.20;10.27;;;2.70;99.90;;;;;;4876228;29;20210;-80
2023/03/03 10:46:56;;;;;;;20.13;10.60;;;2.90;99.90;;;;;;4845445;29;20211;-80
2023/03/03 10:50:09;;;;;;;17.87;10.30;;;2.90;99.90;;;;;;4862194;29;20185;-81
2023/03/03 10:52:46;;;;;;;16.40;9.83;;;2.90;99.90;;;;;;4804517;29;20667;-80
2023/03/03 10:55:21;;;;;;;18.70;9.40;;;3.00;99.90;;;;;;4853036;29;20203;-80
2023/03/03 10:58:18;;;;;;;19.97;10.03;;;2.90;99.90;;;;;;4860484;29;20180;-81
2023/03/03 11:00:52;;;;;;;17.90;9.77;;;3.00;99.90;;;;;;4864286;29;20192;-81
2023/03/03 11:03:46;;;;;;;18.90;10.07;;;3.20;99.90;;;;;;4875841;29;20195;-81
2023/03/03 11:06:49;;;;;;;18.97;9.70;;;3.30;99.90;;;;;;4856714;29;20226;-81
2023/03/03 11:09:36;;;;;;;21.03;10.37;;;3.20;99.90;;;;;;4878910;29;20203;-80
2023/03/03 11:12:29;;;;;;;18.00;10.27;;;3.20;99.90;;;;;;4863589;29;20231;-81
2023/03/03 11:15:49;;;;;;;16.30;8.77;;;3.20;99.90;;;;;;4863465;29;20316;-81
2023/03/03 11:18:31;;;;;;;18.53;9.93;;;3.20;99.90;;;;;;4807586;29;20189;-82
2023/03/03 11:21:31;;;;;;;17.07;8.53;;;3.40;99.90;;;;;;4866647;29;20251;-81
2023/03/03 11:24:14;;;;;;;14.63;9.20;;;3.50;99.90;;;;;;4839235;29;20196;-81
2023/03/03 11:27:04;;;;;;;16.63;10.00;;;3.60;99.90;;;;;;4879984;29;20248;-81
2023/03/03 11:29:43;;;;;;;15.33;9.03;;;3.50;99.90;;;;;;4878509;29;20183;-80
2023/03/03 11:32:42;;;;;;;15.53;9.33;;;3.60;99.90;;;;;;4878687;29;20207;-81
2023/03/03 11:35:41;;;;;;;17.43;9.50;;;3.60;99.90;;;;;;4838969;29;20223;-81
2023/03/03 11:38:30;;;;;;;16.23;9.60;;;3.50;99.90;;;;;;4879967;29;20232;-81
2023/03/03 11:41:03;;;;;;;15.53;9.50;;;3.40;99.90;;;;;;4862973;29;20299;-81
2023/03/03 11:43:35;;;;;;;18.13;9.43;;;3.50;99.90;;;;;;4863094;29;20566;-81
2023/03/03 11:46:17;;;;;;;17.17;10.00;;;3.70;99.90;;;;;;4863013;29;20290;-81
2023/03/03 11:49:06;;;;;;;14.93;9.23;;;3.80;99.90;;;;;;4863457;29;20191;-81
2023/03/03 11:51:54;;;;;;;15.10;9.00;;;3.80;99.90;;;;;;4865791;29;20200;-81
2023/03/03 11:54:41;;;;;;;15.47;8.80;;;3.70;99.90;;;;;;4883217;29;20198;-81
2023/03/03 11:57:22;;;;;;;15.83;9.20;;;3.60;99.90;;;;;;4882181;29;20199;-82
2023/03/03 12:00:11;;;;;;;13.93;8.73;;;3.50;99.90;;;;;;4883329;29;20202;-82
2023/03/03 12:02:58;;;;;;;16.17;8.60;;;3.50;99.90;;;;;;4882077;29;20664;-80
2023/03/03 12:05:53;;;;;;;15.23;8.50;;;3.50;99.90;;;;;;4882258;29;20227;-81
2023/03/03 12:08:36;;;;;;;17.50;10.40;;;3.80;99.90;;;;;;4883573;29;20187;-81
2023/03/03 12:11:26;;;;;;;16.17;9.40;;;4.10;99.90;;;;;;4883150;29;20179;-81
2023/03/03 12:14:21;;;;;;;18.33;9.40;;;4.10;99.90;;;;;;4866482;29;20331;-81
2023/03/03 12:17:05;;;;;;;13.80;8.77;;;4.00;99.90;;;;;;4883307;29;20181;-81
2023/03/03 12:19:36;;;;;;;17.17;9.07;;;3.80;99.90;;;;;;4866321;29;20613;-81
2023/03/03 12:22:23;;;;;;;16.73;9.93;;;3.70;99.90;;;;;;4866023;29;20234;-82
2023/03/03 12:24:57;;;;;;;16.20;9.33;;;3.80;99.90;;;;;;4881723;29;20725;-81
2023/03/03 12:27:53;;;;;;;16.63;10.07;;;3.90;99.90;;;;;;4883222;29;20615;-81
2023/03/03 12:30:52;;;;;;;17.00;9.70;;;4.00;99.90;;;;;;4866080;29;20177;-81
2023/03/03 12:33:31;;;;;;;19.40;9.73;;;4.00;99.90;;;;;;4866287;29;20183;-81
2023/03/03 12:36:29;;;;;;;14.87;9.40;;;4.00;99.90;;;;;;4853317;29;20299;-82
2023/03/03 12:39:12;;;;;;;18.17;10.40;;;4.00;99.90;;;;;;4859283;29;20623;-81
2023/03/03 12:42:02;;;;;;;16.63;10.73;;;4.00;99.90;;;;;;4862835;29;20180;-81
2023/03/03 12:44:42;;;;;;;19.67;10.60;;;4.00;99.90;;;;;;4847439;29;20267;-81
2023/03/03 12:47:28;;;;;;;21.87;11.30;;;4.10;99.90;;;;;;4864153;29;20568;-81
2023/03/03 12:50:14;;;;;;;19.90;11.13;;;4.20;99.90;;;;;;4850498;29;20184;-80
2023/03/03 12:52:49;;;;;;;19.40;10.73;;;4.10;99.90;;;;;;4881704;29;20172;-81
2023/03/03 12:55:55;;;;;;;18.07;10.57;;;4.10;99.90;;;;;;4881358;29;20236;-80
2023/03/03 12:58:45;;;;;;;19.77;10.53;;;4.10;99.90;;;;;;4882510;29;20186;-80
2023/03/03 13:01:34;;;;;;;18.90;10.37;;;4.20;99.90;;;;;;4865256;29;20518;-81
2023/03/03 13:04:35;;;;;;;17.63;9.63;;;4.20;99.90;;;;;;4872959;29;20199;-82
2023/03/03 13:07:22;;;;;;;17.70;10.57;;;4.20;99.90;;;;;;4852754;29;20204;-81
2023/03/03 13:10:10;;;;;;;17.20;10.00;;;4.10;99.90;;;;;;4847103;29;20188;-81
2023/03/03 13:12:48;;;;;;;22.33;11.00;;;4.10;99.90;;;;;;4867889;29;20497;-81